sensor_id;sensor_type;location;lat;lon;timestamp;pressure;altitude;pressure_sealevel;temperature;humidity
43364;BME280;40636;52.424;-1.948;2023-05-01T00:01:32;100061.75;;;10.25;100.00
43364;BME280;40636;52.424;-1.948;2023-05-01T00:03:59;100055.88;;;10.22;100.00
43364;BME280;40636;52.424;-1.948;2023-05-01T00:06:26;100057.56;;;10.23;100.00
43364;BME280;40636;52.424;-1.948;2023-05-01T00:08:53;100052.81;;;10.18;100.00
43364;BME280;40636;52.424;-1.948;2023-05-01T00:11:20;100055.78;;;10.16;100.00
43364;BME280;40636;52.424;-1.948;2023-05-01T00:13:47;100058.69;;;10.10;100.00
43364;BME280;40636;52.424;-1.948;2023-05-01T00:16:14;100047.38;;;10.06;100.00
43364;BME280;40636;52.424;-1.948;2023-05-01T00:18:43;100044.19;;;9.98;100.00
43364;BME280;40636;52.424;-1.948;2023-05-01T00:21:10;100050.41;;;9.93;100.00
43364;BME280;40636;52.424;-1.948;2023-05-01T00:23:37;100040.53;;;9.92;100.00
43364;BME280;40636;52.424;-1.948;2023-05-01T00:26:04;100043.16;;;9.87;100.00
43364;BME280;40636;52.424;-1.948;2023-05-01T00:28:30;100038.16;;;9.84;100.00
43364;BME280;40636;52.424;-1.948;2023-05-01T00:30:58;100039.38;;;9.76;100.00
43364;BME280;40636;52.424;-1.948;2023-05-01T00:33:24;100043.34;;;9.69;100.00
43364;BME280;40636;52.424;-1.948;2023-05-01T00:35:51;100039.88;;;9.61;100.00
43364;BME280;40636;52.424;-1.948;2023-05-01T00:38:19;100034.41;;;9.61;100.00
43364;BME280;40636;52.424;-1.948;2023-05-01T00:40:46;100038.72;;;9.57;100.00
43364;BME280;40636;52.424;-1.948;2023-05-01T00:43:13;100044.09;;;9.52;100.00
43364;BME280;40636;52.424;-1.948;2023-05-01T00:45:43;100045.16;;;9.51;100.00
43364;BME280;40636;52.424;-1.948;2023-05-01T00:48:10;100044.56;;;9.49;100.00
43364;BME280;40636;52.424;-1.948;2023-05-01T00:50:37;100042.78;;;9.43;100.00
43364;BME280;40636;52.424;-1.948;2023-05-01T00:53:05;100047.19;;;9.44;100.00
43364;BME280;40636;52.424;-1.948;2023-05-01T00:55:32;100039.13;;;9.37;100.00
43364;BME280;40636;52.424;-1.948;2023-05-01T00:58:01;100045.56;;;9.31;100.00
43364;BME280;40636;52.424;-1.948;2023-05-01T01:00:28;100042.69;;;9.26;100.00
43364;BME280;40636;52.424;-1.948;2023-05-01T01:02:55;100038.91;;;9.27;100.00
43364;BME280;40636;52.424;-1.948;2023-05-01T01:05:24;100044.47;;;9.32;100.00
43364;BME280;40636;52.424;-1.948;2023-05-01T01:08:18;100029.97;;;9.32;100.00
43364;BME280;40636;52.424;-1.948;2023-05-01T01:16:31;100018.97;;;9.44;100.00
43364;BME280;40636;52.424;-1.948;2023-05-01T01:21:49;100008.63;;;9.46;100.00
43364;BME280;40636;52.424;-1.948;2023-05-01T01:27:25;100000.03;;;9.54;100.00
43364;BME280;40636;52.424;-1.948;2023-05-01T01:35:52;99993.00;;;9.46;100.00
43364;BME280;40636;52.424;-1.948;2023-05-01T01:38:21;99989.75;;;9.49;100.00
43364;BME280;40636;52.424;-1.948;2023-05-01T01:40:58;99997.41;;;9.47;100.00
43364;BME280;40636;52.424;-1.948;2023-05-01T01:43:31;99992.50;;;9.49;100.00
43364;BME280;40636;52.424;-1.948;2023-05-01T01:46:01;99992.50;;;9.49;100.00
43364;BME280;40636;52.424;-1.948;2023-05-01T01:48:35;99990.38;;;9.51;100.00
43364;BME280;40636;52.424;-1.948;2023-05-01T01:51:09;99983.00;;;9.52;100.00
43364;BME280;40636;52.424;-1.948;2023-05-01T01:53:39;99980.00;;;9.53;100.00
43364;BME280;40636;52.424;-1.948;2023-05-01T01:56:07;99974.50;;;9.53;100.00
43364;BME280;40636;52.424;-1.948;2023-05-01T01:58:37;99979.41;;;9.51;100.00
43364;BME280;40636;52.424;-1.948;2023-05-01T02:01:05;99970.59;;;9.49;100.00
43364;BME280;40636;52.424;-1.948;2023-05-01T02:03:34;99963.47;;;9.48;100.00
43364;BME280;40636;52.424;-1.948;2023-05-01T02:06:05;99959.78;;;9.43;100.00
43364;BME280;40636;52.424;-1.948;2023-05-01T02:08:34;99959.44;;;9.39;100.00
43364;BME280;40636;52.424;-1.948;2023-05-01T02:11:03;99960.06;;;9.29;100.00
43364;BME280;40636;52.424;-1.948;2023-05-01T02:13:32;99961.88;;;9.24;100.00
43364;BME280;40636;52.424;-1.948;2023-05-01T02:16:01;99960.22;;;9.23;100.00
43364;BME280;40636;52.424;-1.948;2023-05-01T02:18:30;99953.03;;;9.22;100.00
43364;BME280;40636;52.424;-1.948;2023-05-01T02:20:58;99961.25;;;9.22;100.00
43364;BME280;40636;52.424;-1.948;2023-05-01T02:23:26;99954.72;;;9.23;100.00
43364;BME280;40636;52.424;-1.948;2023-05-01T02:25:55;99959.38;;;9.22;100.00
43364;BME280;40636;52.424;-1.948;2023-05-01T02:28:23;99954.38;;;9.19;100.00
43364;BME280;40636;52.424;-1.948;2023-05-01T02:30:52;99950.56;;;9.20;100.00
43364;BME280;40636;52.424;-1.948;2023-05-01T02:33:19;99948.06;;;9.19;100.00
43364;BME280;40636;52.424;-1.948;2023-05-01T02:35:45;99945.34;;;9.19;100.00
43364;BME280;40636;52.424;-1.948;2023-05-01T02:38:15;99949.72;;;9.20;100.00
43364;BME280;40636;52.424;-1.948;2023-05-01T02:40:46;99945.34;;;9.19;100.00
43364;BME280;40636;52.424;-1.948;2023-05-01T02:43:19;99947.56;;;9.22;100.00
43364;BME280;40636;52.424;-1.948;2023-05-01T02:45:46;99943.06;;;9.15;100.00
43364;BME280;40636;52.424;-1.948;2023-05-01T02:48:19;99950.09;;;9.11;100.00
43364;BME280;40636;52.424;-1.948;2023-05-01T02:50:48;99938.69;;;9.14;100.00
43364;BME280;40636;52.424;-1.948;2023-05-01T02:53:15;99948.69;;;9.09;100.00
43364;BME280;40636;52.424;-1.948;2023-05-01T02:55:42;99951.44;;;9.09;100.00
43364;BME280;40636;52.424;-1.948;2023-05-01T02:58:19;99942.25;;;9.03;100.00
43364;BME280;40636;52.424;-1.948;2023-05-01T03:00:47;99937.38;;;9.05;100.00
43364;BME280;40636;52.424;-1.948;2023-05-01T03:03:16;99939.41;;;8.98;100.00
43364;BME280;40636;52.424;-1.948;2023-05-01T03:05:43;99940.97;;;8.94;100.00
43364;BME280;40636;52.424;-1.948;2023-05-01T03:08:10;99945.38;;;8.95;100.00
43364;BME280;40636;52.424;-1.948;2023-05-01T03:10:39;99937.75;;;8.85;100.00
43364;BME280;40636;52.424;-1.948;2023-05-01T03:13:10;99935.38;;;8.89;100.00
43364;BME280;40636;52.424;-1.948;2023-05-01T03:15:37;99941.94;;;8.88;100.00
43364;BME280;40636;52.424;-1.948;2023-05-01T03:18:04;99936.34;;;8.83;100.00
43364;BME280;40636;52.424;-1.948;2023-05-01T03:20:31;99937.44;;;8.82;100.00
43364;BME280;40636;52.424;-1.948;2023-05-01T03:22:59;99941.72;;;8.78;100.00
43364;BME280;40636;52.424;-1.948;2023-05-01T03:25:25;99947.91;;;8.73;100.00
43364;BME280;40636;52.424;-1.948;2023-05-01T03:27:52;99939.78;;;8.67;100.00
43364;BME280;40636;52.424;-1.948;2023-05-01T03:30:20;99941.59;;;8.61;100.00
43364;BME280;40636;52.424;-1.948;2023-05-01T03:32:47;99948.38;;;8.58;100.00
43364;BME280;40636;52.424;-1.948;2023-05-01T03:35:14;99941.47;;;8.56;100.00
43364;BME280;40636;52.424;-1.948;2023-05-01T03:37:41;99945.38;;;8.48;100.00
43364;BME280;40636;52.424;-1.948;2023-05-01T03:40:08;99938.38;;;8.41;100.00
43364;BME280;40636;52.424;-1.948;2023-05-01T03:42:34;99944.75;;;8.34;100.00
43364;BME280;40636;52.424;-1.948;2023-05-01T03:45:01;99941.19;;;8.34;100.00
43364;BME280;40636;52.424;-1.948;2023-05-01T03:47:28;99941.63;;;8.31;100.00
43364;BME280;40636;52.424;-1.948;2023-05-01T03:49:55;99946.28;;;8.30;100.00
43364;BME280;40636;52.424;-1.948;2023-05-01T03:52:22;99941.06;;;8.29;100.00
43364;BME280;40636;52.424;-1.948;2023-05-01T03:54:49;99950.91;;;8.30;100.00
43364;BME280;40636;52.424;-1.948;2023-05-01T03:57:15;99946.06;;;8.32;100.00
43364;BME280;40636;52.424;-1.948;2023-05-01T03:59:42;99953.09;;;8.39;100.00
43364;BME280;40636;52.424;-1.948;2023-05-01T04:02:09;99954.66;;;8.47;100.00
43364;BME280;40636;52.424;-1.948;2023-05-01T04:04:36;99950.75;;;8.55;100.00
43364;BME280;40636;52.424;-1.948;2023-05-01T04:07:03;99941.72;;;8.54;100.00
43364;BME280;40636;52.424;-1.948;2023-05-01T04:09:30;99946.47;;;8.59;100.00
43364;BME280;40636;52.424;-1.948;2023-05-01T04:11:57;99946.22;;;8.60;100.00
43364;BME280;40636;52.424;-1.948;2023-05-01T04:14:24;99946.34;;;8.66;100.00
43364;BME280;40636;52.424;-1.948;2023-05-01T04:16:51;99939.56;;;8.68;100.00
43364;BME280;40636;52.424;-1.948;2023-05-01T04:19:17;99937.66;;;8.69;100.00
43364;BME280;40636;52.424;-1.948;2023-05-01T04:21:44;99946.81;;;8.74;100.00
43364;BME280;40636;52.424;-1.948;2023-05-01T04:24:11;99941.72;;;8.78;100.00
43364;BME280;40636;52.424;-1.948;2023-05-01T04:26:38;99939.81;;;8.78;100.00
43364;BME280;40636;52.424;-1.948;2023-05-01T04:29:05;99937.66;;;8.80;100.00
43364;BME280;40636;52.424;-1.948;2023-05-01T04:31:32;99939.09;;;8.83;100.00
43364;BME280;40636;52.424;-1.948;2023-05-01T04:33:59;99947.66;;;8.86;100.00
43364;BME280;40636;52.424;-1.948;2023-05-01T04:36:25;99948.22;;;8.88;100.00
43364;BME280;40636;52.424;-1.948;2023-05-01T04:38:52;99936.81;;;8.92;100.00
43364;BME280;40636;52.424;-1.948;2023-05-01T04:41:19;99938.81;;;8.96;100.00
43364;BME280;40636;52.424;-1.948;2023-05-01T04:43:46;99942.97;;;8.99;100.00
43364;BME280;40636;52.424;-1.948;2023-05-01T04:46:13;99948.13;;;8.95;100.00
43364;BME280;40636;52.424;-1.948;2023-05-01T04:48:40;99949.28;;;8.99;100.00
43364;BME280;40636;52.424;-1.948;2023-05-01T04:51:07;99950.97;;;9.00;100.00
43364;BME280;40636;52.424;-1.948;2023-05-01T04:53:33;99944.16;;;9.03;100.00
43364;BME280;40636;52.424;-1.948;2023-05-01T04:56:00;99951.66;;;9.07;100.00
43364;BME280;40636;52.424;-1.948;2023-05-01T04:58:27;99955.00;;;9.09;100.00
43364;BME280;40636;52.424;-1.948;2023-05-01T05:00:53;99960.81;;;9.13;100.00
43364;BME280;40636;52.424;-1.948;2023-05-01T05:03:20;99955.34;;;9.13;100.00
43364;BME280;40636;52.424;-1.948;2023-05-01T05:05:48;99960.94;;;9.18;100.00
43364;BME280;40636;52.424;-1.948;2023-05-01T05:08:15;99964.50;;;9.19;100.00
43364;BME280;40636;52.424;-1.948;2023-05-01T05:10:41;99962.34;;;9.21;100.00
43364;BME280;40636;52.424;-1.948;2023-05-01T05:13:08;99966.88;;;9.27;100.00
43364;BME280;40636;52.424;-1.948;2023-05-01T05:15:35;99966.38;;;9.30;100.00
43364;BME280;40636;52.424;-1.948;2023-05-01T05:18:02;99961.50;;;9.32;100.00
43364;BME280;40636;52.424;-1.948;2023-05-01T05:20:29;99962.06;;;9.34;100.00
43364;BME280;40636;52.424;-1.948;2023-05-01T05:22:56;99959.69;;;9.37;100.00
43364;BME280;40636;52.424;-1.948;2023-05-01T05:25:23;99963.84;;;9.40;100.00
43364;BME280;40636;52.424;-1.948;2023-05-01T05:27:50;99971.09;;;9.46;100.00
43364;BME280;40636;52.424;-1.948;2023-05-01T05:30:17;99966.56;;;9.52;100.00
43364;BME280;40636;52.424;-1.948;2023-05-01T05:32:45;99976.19;;;9.54;100.00
43364;BME280;40636;52.424;-1.948;2023-05-01T05:35:12;99977.13;;;9.60;100.00
43364;BME280;40636;52.424;-1.948;2023-05-01T05:37:39;99974.13;;;9.61;100.00
43364;BME280;40636;52.424;-1.948;2023-05-01T05:40:06;99977.81;;;9.67;100.00
43364;BME280;40636;52.424;-1.948;2023-05-01T05:42:33;99979.81;;;9.72;100.00
43364;BME280;40636;52.424;-1.948;2023-05-01T05:45:00;99980.75;;;9.77;100.00
43364;BME280;40636;52.424;-1.948;2023-05-01T05:47:27;99981.94;;;9.81;100.00
43364;BME280;40636;52.424;-1.948;2023-05-01T05:49:54;99987.16;;;9.83;100.00
43364;BME280;40636;52.424;-1.948;2023-05-01T05:52:22;99993.31;;;9.90;100.00
43364;BME280;40636;52.424;-1.948;2023-05-01T05:54:49;99977.72;;;9.90;100.00
43364;BME280;40636;52.424;-1.948;2023-05-01T05:57:16;99980.69;;;9.89;100.00
43364;BME280;40636;52.424;-1.948;2023-05-01T05:59:43;99979.88;;;9.88;100.00
43364;BME280;40636;52.424;-1.948;2023-05-01T06:02:10;99979.63;;;9.90;100.00
43364;BME280;40636;52.424;-1.948;2023-05-01T06:04:37;99983.31;;;9.96;100.00
43364;BME280;40636;52.424;-1.948;2023-05-01T06:07:04;99982.56;;;10.00;100.00
43364;BME280;40636;52.424;-1.948;2023-05-01T06:09:31;99989.22;;;10.04;100.00
43364;BME280;40636;52.424;-1.948;2023-05-01T06:11:58;99977.25;;;10.10;100.00
43364;BME280;40636;52.424;-1.948;2023-05-01T06:14:25;99984.75;;;10.15;100.00
43364;BME280;40636;52.424;-1.948;2023-05-01T06:16:52;99986.19;;;10.18;100.00
43364;BME280;40636;52.424;-1.948;2023-05-01T06:19:19;99982.34;;;10.19;100.00
43364;BME280;40636;52.424;-1.948;2023-05-01T06:21:45;99985.19;;;10.24;100.00
43364;BME280;40636;52.424;-1.948;2023-05-01T06:24:12;99994.25;;;10.24;100.00
43364;BME280;40636;52.424;-1.948;2023-05-01T06:26:39;99988.38;;;10.32;100.00
43364;BME280;40636;52.424;-1.948;2023-05-01T06:29:06;99989.28;;;10.38;100.00
43364;BME280;40636;52.424;-1.948;2023-05-01T06:31:33;99993.63;;;10.51;100.00
43364;BME280;40636;52.424;-1.948;2023-05-01T06:33:59;99992.69;;;10.62;100.00
43364;BME280;40636;52.424;-1.948;2023-05-01T06:36:26;99995.78;;;10.65;100.00
43364;BME280;40636;52.424;-1.948;2023-05-01T06:38:53;99996.13;;;10.69;100.00
43364;BME280;40636;52.424;-1.948;2023-05-01T06:41:20;99993.78;;;10.78;100.00
43364;BME280;40636;52.424;-1.948;2023-05-01T06:43:47;99993.38;;;10.86;100.00
43364;BME280;40636;52.424;-1.948;2023-05-01T06:46:14;99999.34;;;10.83;100.00
43364;BME280;40636;52.424;-1.948;2023-05-01T06:48:40;99999.44;;;10.88;100.00
43364;BME280;40636;52.424;-1.948;2023-05-01T06:51:07;99998.84;;;10.86;100.00
43364;BME280;40636;52.424;-1.948;2023-05-01T06:53:34;100004.66;;;10.89;100.00
43364;BME280;40636;52.424;-1.948;2023-05-01T06:56:02;100010.00;;;10.96;100.00
43364;BME280;40636;52.424;-1.948;2023-05-01T06:58:29;100006.16;;;10.97;100.00
43364;BME280;40636;52.424;-1.948;2023-05-01T07:00:56;100004.91;;;11.05;100.00
43364;BME280;40636;52.424;-1.948;2023-05-01T07:03:23;100005.25;;;11.08;100.00
43364;BME280;40636;52.424;-1.948;2023-05-01T07:05:53;100022.63;;;11.14;100.00
43364;BME280;40636;52.424;-1.948;2023-05-01T07:08:20;100011.44;;;11.21;100.00
43364;BME280;40636;52.424;-1.948;2023-05-01T07:10:47;100014.31;;;11.31;100.00
43364;BME280;40636;52.424;-1.948;2023-05-01T07:13:15;100017.97;;;11.36;100.00
43364;BME280;40636;52.424;-1.948;2023-05-01T07:15:42;100023.81;;;11.40;100.00
43364;BME280;40636;52.424;-1.948;2023-05-01T07:18:10;100021.69;;;11.47;100.00
43364;BME280;40636;52.424;-1.948;2023-05-01T07:20:40;100018.44;;;11.50;100.00
43364;BME280;40636;52.424;-1.948;2023-05-01T07:23:09;100017.63;;;11.50;100.00
43364;BME280;40636;52.424;-1.948;2023-05-01T07:25:37;100027.25;;;11.52;100.00
43364;BME280;40636;52.424;-1.948;2023-05-01T07:28:12;100018.50;;;11.55;100.00
43364;BME280;40636;52.424;-1.948;2023-05-01T07:30:42;100029.28;;;11.62;100.00
43364;BME280;40636;52.424;-1.948;2023-05-01T07:33:10;100029.69;;;11.71;100.00
43364;BME280;40636;52.424;-1.948;2023-05-01T07:35:39;100038.03;;;11.81;100.00
43364;BME280;40636;52.424;-1.948;2023-05-01T07:38:11;100038.53;;;11.95;100.00
43364;BME280;40636;52.424;-1.948;2023-05-01T07:40:41;100038.28;;;11.96;100.00
43364;BME280;40636;52.424;-1.948;2023-05-01T07:43:10;100037.44;;;11.96;100.00
43364;BME280;40636;52.424;-1.948;2023-05-01T07:45:38;100039.31;;;11.90;100.00
43364;BME280;40636;52.424;-1.948;2023-05-01T07:48:06;100042.22;;;12.05;100.00
43364;BME280;40636;52.424;-1.948;2023-05-01T07:50:33;100045.84;;;12.11;100.00
43364;BME280;40636;52.424;-1.948;2023-05-01T07:53:00;100043.63;;;12.08;100.00
43364;BME280;40636;52.424;-1.948;2023-05-01T07:55:27;100048.97;;;12.19;100.00
43364;BME280;40636;52.424;-1.948;2023-05-01T07:57:54;100047.25;;;12.35;100.00
43364;BME280;40636;52.424;-1.948;2023-05-01T08:00:21;100046.28;;;12.52;100.00
43364;BME280;40636;52.424;-1.948;2023-05-01T08:02:50;100048.47;;;12.50;100.00
43364;BME280;40636;52.424;-1.948;2023-05-01T08:05:18;100054.50;;;12.47;100.00
43364;BME280;40636;52.424;-1.948;2023-05-01T08:07:47;100054.22;;;12.48;100.00
43364;BME280;40636;52.424;-1.948;2023-05-01T08:10:14;100048.72;;;12.48;100.00
43364;BME280;40636;52.424;-1.948;2023-05-01T08:12:41;100052.91;;;12.56;100.00
43364;BME280;40636;52.424;-1.948;2023-05-01T08:15:08;100058.50;;;12.66;100.00
43364;BME280;40636;52.424;-1.948;2023-05-01T08:17:35;100053.25;;;12.59;100.00
43364;BME280;40636;52.424;-1.948;2023-05-01T08:20:21;100064.81;;;12.61;100.00
43364;BME280;40636;52.424;-1.948;2023-05-01T08:22:48;100057.88;;;12.54;100.00
43364;BME280;40636;52.424;-1.948;2023-05-01T08:25:15;100072.69;;;12.53;100.00
43364;BME280;40636;52.424;-1.948;2023-05-01T08:27:41;100068.56;;;12.50;100.00
43364;BME280;40636;52.424;-1.948;2023-05-01T08:30:08;100067.00;;;12.59;100.00
43364;BME280;40636;52.424;-1.948;2023-05-01T08:32:35;100069.09;;;12.79;100.00
43364;BME280;40636;52.424;-1.948;2023-05-01T08:35:02;100069.50;;;12.93;100.00
43364;BME280;40636;52.424;-1.948;2023-05-01T08:37:29;100065.50;;;13.11;100.00
43364;BME280;40636;52.424;-1.948;2023-05-01T08:39:56;100064.97;;;13.14;100.00
43364;BME280;40636;52.424;-1.948;2023-05-01T08:42:23;100070.47;;;13.14;100.00
43364;BME280;40636;52.424;-1.948;2023-05-01T08:44:52;100078.88;;;13.29;100.00
43364;BME280;40636;52.424;-1.948;2023-05-01T08:47:20;100079.16;;;13.28;100.00
43364;BME280;40636;52.424;-1.948;2023-05-01T08:49:49;100084.03;;;13.20;100.00
43364;BME280;40636;52.424;-1.948;2023-05-01T08:52:19;100072.44;;;13.18;100.00
43364;BME280;40636;52.424;-1.948;2023-05-01T08:54:51;100077.50;;;13.27;100.00
43364;BME280;40636;52.424;-1.948;2023-05-01T08:57:22;100081.91;;;13.28;100.00
43364;BME280;40636;52.424;-1.948;2023-05-01T08:59:52;100075.88;;;13.31;100.00
43364;BME280;40636;52.424;-1.948;2023-05-01T09:02:22;100077.53;;;13.32;100.00
43364;BME280;40636;52.424;-1.948;2023-05-01T09:04:50;100079.25;;;13.43;100.00
43364;BME280;40636;52.424;-1.948;2023-05-01T09:07:18;100082.59;;;13.50;100.00
43364;BME280;40636;52.424;-1.948;2023-05-01T09:09:44;100092.22;;;13.48;100.00
43364;BME280;40636;52.424;-1.948;2023-05-01T09:12:24;100087.28;;;13.44;100.00
43364;BME280;40636;52.424;-1.948;2023-05-01T09:14:53;100088.19;;;13.65;100.00
43364;BME280;40636;52.424;-1.948;2023-05-01T09:17:21;100092.53;;;13.51;100.00
43364;BME280;40636;52.424;-1.948;2023-05-01T09:19:49;100095.34;;;13.61;100.00
43364;BME280;40636;52.424;-1.948;2023-05-01T09:22:17;100092.41;;;13.78;100.00
43364;BME280;40636;52.424;-1.948;2023-05-01T09:24:44;100101.47;;;13.68;100.00
43364;BME280;40636;52.424;-1.948;2023-05-01T09:27:12;100101.44;;;13.63;100.00
43364;BME280;40636;52.424;-1.948;2023-05-01T09:29:43;100099.28;;;13.76;100.00
43364;BME280;40636;52.424;-1.948;2023-05-01T09:32:19;100113.63;;;13.73;100.00
43364;BME280;40636;52.424;-1.948;2023-05-01T09:34:47;100107.50;;;13.65;100.00
43364;BME280;40636;52.424;-1.948;2023-05-01T09:37:28;100108.09;;;13.67;100.00
43364;BME280;40636;52.424;-1.948;2023-05-01T09:40:07;100107.28;;;13.72;100.00
43364;BME280;40636;52.424;-1.948;2023-05-01T09:42:39;100111.75;;;13.83;100.00
43364;BME280;40636;52.424;-1.948;2023-05-01T09:45:17;100114.53;;;13.88;100.00
43364;BME280;40636;52.424;-1.948;2023-05-01T09:47:45;100107.91;;;13.89;100.00
43364;BME280;40636;52.424;-1.948;2023-05-01T09:50:33;100120.63;;;13.90;100.00
43364;BME280;40636;52.424;-1.948;2023-05-01T09:53:01;100115.03;;;13.80;100.00
43364;BME280;40636;52.424;-1.948;2023-05-01T09:55:30;100112.81;;;13.77;100.00
43364;BME280;40636;52.424;-1.948;2023-05-01T09:57:56;100120.81;;;13.79;100.00
43364;BME280;40636;52.424;-1.948;2023-05-01T10:00:24;100120.78;;;13.68;100.00
43364;BME280;40636;52.424;-1.948;2023-05-01T10:02:51;100122.41;;;13.69;100.00
43364;BME280;40636;52.424;-1.948;2023-05-01T10:05:18;100126.91;;;13.81;100.00
43364;BME280;40636;52.424;-1.948;2023-05-01T10:08:00;100114.66;;;13.66;100.00
43364;BME280;40636;52.424;-1.948;2023-05-01T10:10:36;100118.81;;;13.64;100.00
43364;BME280;40636;52.424;-1.948;2023-05-01T10:13:17;100126.59;;;13.77;100.00
43364;BME280;40636;52.424;-1.948;2023-05-01T10:15:45;100130.50;;;13.81;100.00
43364;BME280;40636;52.424;-1.948;2023-05-01T10:18:13;100125.56;;;13.88;100.00
43364;BME280;40636;52.424;-1.948;2023-05-01T10:20:40;100128.63;;;13.97;100.00
43364;BME280;40636;52.424;-1.948;2023-05-01T10:23:07;100131.41;;;14.02;100.00
43364;BME280;40636;52.424;-1.948;2023-05-01T10:25:35;100126.72;;;14.03;100.00
43364;BME280;40636;52.424;-1.948;2023-05-01T10:28:02;100128.66;;;14.02;100.00
43364;BME280;40636;52.424;-1.948;2023-05-01T10:30:30;100135.31;;;14.11;100.00
43364;BME280;40636;52.424;-1.948;2023-05-01T10:32:58;100126.00;;;14.23;100.00
43364;BME280;40636;52.424;-1.948;2023-05-01T10:35:27;100132.34;;;14.28;100.00
43364;BME280;40636;52.424;-1.948;2023-05-01T10:38:00;100137.06;;;14.33;100.00
43364;BME280;40636;52.424;-1.948;2023-05-01T10:40:46;100137.06;;;14.33;100.00
43364;BME280;40636;52.424;-1.948;2023-05-01T10:43:22;100127.66;;;14.29;100.00
43364;BME280;40636;52.424;-1.948;2023-05-01T10:51:22;100137.66;;;14.40;100.00
43364;BME280;40636;52.424;-1.948;2023-05-01T10:59:04;100143.13;;;14.35;100.00
43364;BME280;40636;52.424;-1.948;2023-05-01T11:01:38;100143.44;;;14.43;100.00
43364;BME280;40636;52.424;-1.948;2023-05-01T11:09:38;100152.88;;;14.53;100.00
43364;BME280;40636;52.424;-1.948;2023-05-01T11:12:08;100151.53;;;14.55;100.00
43364;BME280;40636;52.424;-1.948;2023-05-01T11:20:11;100156.38;;;14.28;100.00
43364;BME280;40636;52.424;-1.948;2023-05-01T11:22:39;100151.16;;;14.36;100.00
43364;BME280;40636;52.424;-1.948;2023-05-01T11:25:27;100159.75;;;14.45;100.00
43364;BME280;40636;52.424;-1.948;2023-05-01T11:27:58;100154.22;;;14.45;100.00
43364;BME280;40636;52.424;-1.948;2023-05-01T11:30:38;100148.47;;;14.52;100.00
43364;BME280;40636;52.424;-1.948;2023-05-01T11:33:06;100151.00;;;14.68;100.00
43364;BME280;40636;52.424;-1.948;2023-05-01T11:35:36;100153.50;;;14.70;100.00
43364;BME280;40636;52.424;-1.948;2023-05-01T11:38:04;100149.38;;;14.73;100.00
43364;BME280;40636;52.424;-1.948;2023-05-01T11:40:32;100158.16;;;14.49;100.00
43364;BME280;40636;52.424;-1.948;2023-05-01T11:43:07;100160.41;;;14.67;100.00
43364;BME280;40636;52.424;-1.948;2023-05-01T11:45:35;100153.19;;;14.56;100.00
43364;BME280;40636;52.424;-1.948;2023-05-01T11:48:13;100160.94;;;14.59;100.00
43364;BME280;40636;52.424;-1.948;2023-05-01T11:50:41;100161.41;;;14.46;100.00
43364;BME280;40636;52.424;-1.948;2023-05-01T11:53:13;100159.00;;;14.70;100.00
43364;BME280;40636;52.424;-1.948;2023-05-01T11:55:41;100164.84;;;14.74;100.00
43364;BME280;40636;52.424;-1.948;2023-05-01T11:58:09;100161.50;;;14.71;100.00
43364;BME280;40636;52.424;-1.948;2023-05-01T12:00:38;100160.16;;;14.84;100.00
43364;BME280;40636;52.424;-1.948;2023-05-01T12:05:36;100154.94;;;15.08;100.00
43364;BME280;40636;52.424;-1.948;2023-05-01T12:10:37;100160.19;;;15.15;100.00
43364;BME280;40636;52.424;-1.948;2023-05-01T12:13:06;100154.66;;;15.15;100.00
43364;BME280;40636;52.424;-1.948;2023-05-01T12:15:34;100158.50;;;14.98;100.00
43364;BME280;40636;52.424;-1.948;2023-05-01T12:18:04;100165.66;;;14.74;100.00
43364;BME280;40636;52.424;-1.948;2023-05-01T12:20:45;100165.94;;;14.78;100.00
43364;BME280;40636;52.424;-1.948;2023-05-01T12:23:29;100166.44;;;14.54;100.00
43364;BME280;40636;52.424;-1.948;2023-05-01T12:25:55;100161.13;;;14.47;100.00
43364;BME280;40636;52.424;-1.948;2023-05-01T12:28:23;100159.81;;;14.50;100.00
43364;BME280;40636;52.424;-1.948;2023-05-01T12:30:50;100165.50;;;14.33;100.00
43364;BME280;40636;52.424;-1.948;2023-05-01T12:33:18;100165.75;;;14.27;100.00
43364;BME280;40636;52.424;-1.948;2023-05-01T12:35:47;100164.88;;;14.16;100.00
43364;BME280;40636;52.424;-1.948;2023-05-01T12:38:16;100165.72;;;14.21;100.00
43364;BME280;40636;52.424;-1.948;2023-05-01T12:40:54;100174.59;;;14.29;100.00
43364;BME280;40636;52.424;-1.948;2023-05-01T12:43:32;100183.47;;;14.36;100.00
43364;BME280;40636;52.424;-1.948;2023-05-01T12:45:59;100173.56;;;14.45;100.00
43364;BME280;40636;52.424;-1.948;2023-05-01T12:48:27;100173.63;;;14.55;100.00
43364;BME280;40636;52.424;-1.948;2023-05-01T12:50:54;100179.97;;;14.61;100.00
43364;BME280;40636;52.424;-1.948;2023-05-01T12:53:24;100185.81;;;14.69;100.00
43364;BME280;40636;52.424;-1.948;2023-05-01T12:55:53;100187.50;;;14.81;100.00
43364;BME280;40636;52.424;-1.948;2023-05-01T12:58:21;100186.13;;;14.98;100.00
43364;BME280;40636;52.424;-1.948;2023-05-01T13:00:50;100189.19;;;15.12;100.00
43364;BME280;40636;52.424;-1.948;2023-05-01T13:03:22;100183.94;;;15.11;100.00
43364;BME280;40636;52.424;-1.948;2023-05-01T13:05:57;100183.69;;;15.28;100.00
43364;BME280;40636;52.424;-1.948;2023-05-01T13:08:32;100190.34;;;15.37;100.00
43364;BME280;40636;52.424;-1.948;2023-05-01T13:11:07;100186.19;;;15.55;100.00
43364;BME280;40636;52.424;-1.948;2023-05-01T13:13:35;100185.91;;;15.51;100.00
43364;BME280;40636;52.424;-1.948;2023-05-01T13:16:10;100198.63;;;15.47;100.00
43364;BME280;40636;52.424;-1.948;2023-05-01T13:21:13;100209.69;;;15.47;100.00
43364;BME280;40636;52.424;-1.948;2023-05-01T13:23:42;100205.53;;;15.39;100.00
43364;BME280;40636;52.424;-1.948;2023-05-01T13:26:17;100208.84;;;15.21;100.00
43364;BME280;40636;52.424;-1.948;2023-05-01T13:28:44;100211.31;;;15.12;100.00
43364;BME280;40636;52.424;-1.948;2023-05-01T13:31:12;100204.72;;;15.18;100.00
43364;BME280;40636;52.424;-1.948;2023-05-01T13:33:41;100201.09;;;15.43;100.00